sensor_id;sensor_type;location;lat;lon;timestamp;P1;durP1;ratioP1;P2;durP2;ratioP2
59512;SDS011;45330;51.634;5.562;2022-10-15T00:00:00;45.63;;;27.50;;
59512;SDS011;45330;51.634;5.562;2022-10-15T00:02:25;51.22;;;29.85;;
59512;SDS011;45330;51.634;5.562;2022-10-15T00:04:51;49.28;;;29.45;;
59512;SDS011;45330;51.634;5.562;2022-10-15T00:07:16;49.40;;;30.00;;
59512;SDS011;45330;51.634;5.562;2022-10-15T00:09:42;47.60;;;29.70;;
59512;SDS011;45330;51.634;5.562;2022-10-15T00:12:07;47.97;;;28.70;;
59512;SDS011;45330;51.634;5.562;2022-10-15T00:14:32;53.50;;;30.58;;
59512;SDS011;45330;51.634;5.562;2022-10-15T00:16:58;49.97;;;29.80;;
59512;SDS011;45330;51.634;5.562;2022-10-15T00:19:23;50.45;;;30.30;;
59512;SDS011;45330;51.634;5.562;2022-10-15T00:21:48;50.08;;;29.77;;
59512;SDS011;45330;51.634;5.562;2022-10-15T00:24:14;49.20;;;29.65;;
59512;SDS011;45330;51.634;5.562;2022-10-15T00:26:39;47.33;;;29.52;;
59512;SDS011;45330;51.634;5.562;2022-10-15T00:29:04;48.92;;;28.88;;
59512;SDS011;45330;51.634;5.562;2022-10-15T00:31:30;49.67;;;29.95;;
59512;SDS011;45330;51.634;5.562;2022-10-15T00:33:57;48.95;;;28.40;;
59512;SDS011;45330;51.634;5.562;2022-10-15T00:36:25;51.42;;;29.83;;
59512;SDS011;45330;51.634;5.562;2022-10-15T00:38:53;48.47;;;29.73;;
59512;SDS011;45330;51.634;5.562;2022-10-15T00:41:23;49.13;;;28.50;;
59512;SDS011;45330;51.634;5.562;2022-10-15T00:43:58;47.78;;;29.13;;
59512;SDS011;45330;51.634;5.562;2022-10-15T00:46:30;49.90;;;29.45;;
59512;SDS011;45330;51.634;5.562;2022-10-15T00:52:07;52.28;;;29.92;;
59512;SDS011;45330;51.634;5.562;2022-10-15T00:54:39;48.35;;;29.08;;
59512;SDS011;45330;51.634;5.562;2022-10-15T00:57:08;51.03;;;28.85;;
59512;SDS011;45330;51.634;5.562;2022-10-15T00:59:35;48.20;;;28.83;;
59512;SDS011;45330;51.634;5.562;2022-10-15T01:02:06;51.20;;;29.10;;
59512;SDS011;45330;51.634;5.562;2022-10-15T01:04:31;54.80;;;31.23;;
59512;SDS011;45330;51.634;5.562;2022-10-15T01:06:57;54.70;;;30.73;;
59512;SDS011;45330;51.634;5.562;2022-10-15T01:09:22;55.88;;;32.95;;
59512;SDS011;45330;51.634;5.562;2022-10-15T01:11:52;54.58;;;32.67;;
59512;SDS011;45330;51.634;5.562;2022-10-15T01:20:00;62.67;;;34.10;;
59512;SDS011;45330;51.634;5.562;2022-10-15T01:25:50;61.08;;;34.78;;
59512;SDS011;45330;51.634;5.562;2022-10-15T01:34:18;63.97;;;36.40;;
59512;SDS011;45330;51.634;5.562;2022-10-15T01:39:22;61.97;;;35.78;;
59512;SDS011;45330;51.634;5.562;2022-10-15T01:42:18;66.97;;;38.15;;
59512;SDS011;45330;51.634;5.562;2022-10-15T01:44:49;66.68;;;36.10;;
59512;SDS011;45330;51.634;5.562;2022-10-15T01:47:20;60.05;;;36.03;;
59512;SDS011;45330;51.634;5.562;2022-10-15T01:49:48;67.90;;;37.53;;
59512;SDS011;45330;51.634;5.562;2022-10-15T01:52:18;68.78;;;39.30;;
59512;SDS011;45330;51.634;5.562;2022-10-15T01:54:47;63.70;;;37.20;;
59512;SDS011;45330;51.634;5.562;2022-10-15T01:57:16;67.28;;;37.85;;
59512;SDS011;45330;51.634;5.562;2022-10-15T01:59:43;65.78;;;37.42;;
59512;SDS011;45330;51.634;5.562;2022-10-15T02:02:09;64.97;;;37.50;;
59512;SDS011;45330;51.634;5.562;2022-10-15T02:04:34;61.40;;;38.05;;
59512;SDS011;45330;51.634;5.562;2022-10-15T02:07:05;65.57;;;38.38;;
59512;SDS011;45330;51.634;5.562;2022-10-15T02:15:35;62.80;;;37.22;;
59512;SDS011;45330;51.634;5.562;2022-10-15T02:18:18;60.15;;;37.08;;
59512;SDS011;45330;51.634;5.562;2022-10-15T02:20:58;58.03;;;35.88;;
59512;SDS011;45330;51.634;5.562;2022-10-15T02:24:13;62.38;;;35.47;;
59512;SDS011;45330;51.634;5.562;2022-10-15T02:26:34;55.13;;;34.33;;
59512;SDS011;45330;51.634;5.562;2022-10-15T02:29:01;63.13;;;37.60;;
59512;SDS011;45330;51.634;5.562;2022-10-15T02:31:30;57.58;;;34.97;;
59512;SDS011;45330;51.634;5.562;2022-10-15T02:33:59;54.25;;;34.75;;
59512;SDS011;45330;51.634;5.562;2022-10-15T02:36:27;56.60;;;35.33;;
59512;SDS011;45330;51.634;5.562;2022-10-15T02:38:53;55.92;;;35.15;;
59512;SDS011;45330;51.634;5.562;2022-10-15T02:41:20;57.95;;;35.33;;
59512;SDS011;45330;51.634;5.562;2022-10-15T02:43:46;55.00;;;34.72;;
59512;SDS011;45330;51.634;5.562;2022-10-15T02:46:12;56.30;;;33.85;;
59512;SDS011;45330;51.634;5.562;2022-10-15T02:48:40;56.83;;;34.88;;
59512;SDS011;45330;51.634;5.562;2022-10-15T02:51:05;57.80;;;35.40;;
59512;SDS011;45330;51.634;5.562;2022-10-15T02:53:30;57.47;;;34.35;;
59512;SDS011;45330;51.634;5.562;2022-10-15T02:55:56;57.00;;;34.95;;
59512;SDS011;45330;51.634;5.562;2022-10-15T02:58:21;58.35;;;35.63;;
59512;SDS011;45330;51.634;5.562;2022-10-15T03:00:46;65.47;;;37.45;;
59512;SDS011;45330;51.634;5.562;2022-10-15T03:03:13;64.38;;;36.95;;
59512;SDS011;45330;51.634;5.562;2022-10-15T03:05:38;65.10;;;37.58;;
59512;SDS011;45330;51.634;5.562;2022-10-15T03:08:03;64.65;;;37.75;;
59512;SDS011;45330;51.634;5.562;2022-10-15T03:10:29;61.33;;;36.70;;
59512;SDS011;45330;51.634;5.562;2022-10-15T03:12:54;60.80;;;36.83;;
59512;SDS011;45330;51.634;5.562;2022-10-15T03:15:20;66.75;;;36.72;;
59512;SDS011;45330;51.634;5.562;2022-10-15T03:17:45;60.60;;;36.65;;
59512;SDS011;45330;51.634;5.562;2022-10-15T03:20:10;63.35;;;35.88;;
59512;SDS011;45330;51.634;5.562;2022-10-15T03:22:36;67.70;;;37.92;;
59512;SDS011;45330;51.634;5.562;2022-10-15T03:25:01;68.22;;;36.15;;
59512;SDS011;45330;51.634;5.562;2022-10-15T03:27:27;60.53;;;35.60;;
59512;SDS011;45330;51.634;5.562;2022-10-15T03:29:52;67.40;;;36.55;;
59512;SDS011;45330;51.634;5.562;2022-10-15T03:32:17;67.43;;;36.88;;
59512;SDS011;45330;51.634;5.562;2022-10-15T03:34:43;67.07;;;36.80;;
59512;SDS011;45330;51.634;5.562;2022-10-15T03:37:08;66.68;;;37.45;;
59512;SDS011;45330;51.634;5.562;2022-10-15T03:39:34;64.75;;;37.97;;
59512;SDS011;45330;51.634;5.562;2022-10-15T03:41:59;71.38;;;38.60;;
59512;SDS011;45330;51.634;5.562;2022-10-15T03:44:25;64.22;;;36.95;;
59512;SDS011;45330;51.634;5.562;2022-10-15T03:46:50;67.93;;;36.40;;
59512;SDS011;45330;51.634;5.562;2022-10-15T03:49:16;66.88;;;37.67;;
59512;SDS011;45330;51.634;5.562;2022-10-15T03:51:41;73.18;;;38.30;;
59512;SDS011;45330;51.634;5.562;2022-10-15T03:54:06;69.38;;;38.20;;
59512;SDS011;45330;51.634;5.562;2022-10-15T03:56:32;71.95;;;38.65;;
59512;SDS011;45330;51.634;5.562;2022-10-15T03:58:57;71.60;;;38.45;;
59512;SDS011;45330;51.634;5.562;2022-10-15T04:01:22;72.80;;;37.75;;
59512;SDS011;45330;51.634;5.562;2022-10-15T04:03:50;75.88;;;37.83;;
59512;SDS011;45330;51.634;5.562;2022-10-15T04:06:17;74.93;;;37.60;;
59512;SDS011;45330;51.634;5.562;2022-10-15T04:08:42;77.65;;;39.13;;
59512;SDS011;45330;51.634;5.562;2022-10-15T04:11:08;81.35;;;38.17;;
59512;SDS011;45330;51.634;5.562;2022-10-15T04:13:33;80.60;;;38.45;;
59512;SDS011;45330;51.634;5.562;2022-10-15T04:15:58;75.18;;;37.83;;
59512;SDS011;45330;51.634;5.562;2022-10-15T04:18:24;75.88;;;37.65;;
59512;SDS011;45330;51.634;5.562;2022-10-15T04:20:49;72.05;;;37.20;;
59512;SDS011;45330;51.634;5.562;2022-10-15T04:23:15;83.13;;;39.22;;
59512;SDS011;45330;51.634;5.562;2022-10-15T04:25:41;86.13;;;39.75;;
59512;SDS011;45330;51.634;5.562;2022-10-15T04:28:07;83.22;;;38.38;;
59512;SDS011;45330;51.634;5.562;2022-10-15T04:30:33;81.95;;;37.67;;
59512;SDS011;45330;51.634;5.562;2022-10-15T04:32:58;82.90;;;37.88;;
59512;SDS011;45330;51.634;5.562;2022-10-15T04:35:24;80.50;;;38.00;;
59512;SDS011;45330;51.634;5.562;2022-10-15T04:37:49;84.70;;;38.25;;
59512;SDS011;45330;51.634;5.562;2022-10-15T04:40:14;90.68;;;38.70;;
59512;SDS011;45330;51.634;5.562;2022-10-15T04:42:41;87.47;;;38.90;;
59512;SDS011;45330;51.634;5.562;2022-10-15T04:45:06;95.05;;;39.22;;
59512;SDS011;45330;51.634;5.562;2022-10-15T04:47:32;95.20;;;39.05;;
59512;SDS011;45330;51.634;5.562;2022-10-15T04:49:58;94.55;;;39.53;;
59512;SDS011;45330;51.634;5.562;2022-10-15T04:52:23;96.70;;;39.28;;
59512;SDS011;45330;51.634;5.562;2022-10-15T04:54:48;93.38;;;39.65;;
59512;SDS011;45330;51.634;5.562;2022-10-15T04:57:14;94.55;;;39.45;;
59512;SDS011;45330;51.634;5.562;2022-10-15T04:59:40;99.32;;;39.42;;
59512;SDS011;45330;51.634;5.562;2022-10-15T05:02:07;108.45;;;40.65;;
59512;SDS011;45330;51.634;5.562;2022-10-15T05:04:33;96.40;;;39.00;;
59512;SDS011;45330;51.634;5.562;2022-10-15T05:06:58;96.80;;;39.35;;
59512;SDS011;45330;51.634;5.562;2022-10-15T05:09:23;94.78;;;39.55;;
59512;SDS011;45330;51.634;5.562;2022-10-15T05:11:49;94.30;;;39.47;;
59512;SDS011;45330;51.634;5.562;2022-10-15T05:14:14;93.57;;;39.95;;
59512;SDS011;45330;51.634;5.562;2022-10-15T05:16:40;93.50;;;37.45;;
59512;SDS011;45330;51.634;5.562;2022-10-15T05:19:06;92.70;;;36.80;;
59512;SDS011;45330;51.634;5.562;2022-10-15T05:21:32;89.57;;;36.65;;
59512;SDS011;45330;51.634;5.562;2022-10-15T05:23:59;88.85;;;37.10;;
59512;SDS011;45330;51.634;5.562;2022-10-15T05:26:25;81.20;;;34.83;;
59512;SDS011;45330;51.634;5.562;2022-10-15T05:28:52;86.10;;;36.40;;
59512;SDS011;45330;51.634;5.562;2022-10-15T05:31:21;87.85;;;35.65;;
59512;SDS011;45330;51.634;5.562;2022-10-15T05:33:48;82.53;;;35.40;;
59512;SDS011;45330;51.634;5.562;2022-10-15T05:36:24;82.13;;;35.65;;
59512;SDS011;45330;51.634;5.562;2022-10-15T05:38:55;81.85;;;34.00;;
59512;SDS011;45330;51.634;5.562;2022-10-15T05:41:22;79.75;;;33.10;;
59512;SDS011;45330;51.634;5.562;2022-10-15T05:43:48;83.70;;;34.13;;
59512;SDS011;45330;51.634;5.562;2022-10-15T05:46:15;81.60;;;32.83;;
59512;SDS011;45330;51.634;5.562;2022-10-15T05:48:41;70.82;;;30.77;;
59512;SDS011;45330;51.634;5.562;2022-10-15T05:51:09;71.72;;;31.25;;
59512;SDS011;45330;51.634;5.562;2022-10-15T05:53:37;70.05;;;29.63;;
59512;SDS011;45330;51.634;5.562;2022-10-15T05:56:03;66.93;;;30.48;;
59512;SDS011;45330;51.634;5.562;2022-10-15T05:58:29;65.60;;;29.70;;
59512;SDS011;45330;51.634;5.562;2022-10-15T06:00:55;67.05;;;29.85;;
59512;SDS011;45330;51.634;5.562;2022-10-15T06:03:22;63.47;;;29.05;;
59512;SDS011;45330;51.634;5.562;2022-10-15T06:05:48;64.30;;;30.75;;
59512;SDS011;45330;51.634;5.562;2022-10-15T06:08:13;67.10;;;31.02;;
59512;SDS011;45330;51.634;5.562;2022-10-15T06:10:39;62.75;;;29.55;;
59512;SDS011;45330;51.634;5.562;2022-10-15T06:13:04;60.20;;;29.40;;
59512;SDS011;45330;51.634;5.562;2022-10-15T06:15:30;64.68;;;29.73;;
59512;SDS011;45330;51.634;5.562;2022-10-15T06:17:56;60.67;;;28.90;;
59512;SDS011;45330;51.634;5.562;2022-10-15T06:20:22;59.72;;;28.27;;
59512;SDS011;45330;51.634;5.562;2022-10-15T06:22:47;63.35;;;30.25;;
59512;SDS011;45330;51.634;5.562;2022-10-15T06:25:12;58.45;;;28.17;;
59512;SDS011;45330;51.634;5.562;2022-10-15T06:27:38;55.65;;;27.80;;
59512;SDS011;45330;51.634;5.562;2022-10-15T06:30:03;55.85;;;28.08;;
59512;SDS011;45330;51.634;5.562;2022-10-15T06:32:30;55.92;;;27.92;;
59512;SDS011;45330;51.634;5.562;2022-10-15T06:34:55;59.75;;;28.58;;
59512;SDS011;45330;51.634;5.562;2022-10-15T06:37:21;57.33;;;28.88;;
59512;SDS011;45330;51.634;5.562;2022-10-15T06:39:46;59.95;;;28.90;;
59512;SDS011;45330;51.634;5.562;2022-10-15T06:42:12;57.28;;;29.38;;
59512;SDS011;45330;51.634;5.562;2022-10-15T06:44:37;58.65;;;29.20;;
59512;SDS011;45330;51.634;5.562;2022-10-15T06:47:03;56.15;;;29.08;;
59512;SDS011;45330;51.634;5.562;2022-10-15T06:49:29;57.13;;;29.02;;
59512;SDS011;45330;51.634;5.562;2022-10-15T06:51:54;57.15;;;29.60;;
59512;SDS011;45330;51.634;5.562;2022-10-15T06:54:19;62.15;;;31.25;;
59512;SDS011;45330;51.634;5.562;2022-10-15T06:56:45;60.35;;;31.02;;
59512;SDS011;45330;51.634;5.562;2022-10-15T06:59:10;56.63;;;30.08;;
59512;SDS011;45330;51.634;5.562;2022-10-15T07:01:36;57.03;;;31.55;;
59512;SDS011;45330;51.634;5.562;2022-10-15T07:04:01;53.60;;;29.02;;
59512;SDS011;45330;51.634;5.562;2022-10-15T07:06:26;56.72;;;29.48;;
59512;SDS011;45330;51.634;5.562;2022-10-15T07:08:52;56.53;;;30.92;;
59512;SDS011;45330;51.634;5.562;2022-10-15T07:11:17;54.63;;;30.50;;
59512;SDS011;45330;51.634;5.562;2022-10-15T07:13:42;54.80;;;29.98;;
59512;SDS011;45330;51.634;5.562;2022-10-15T07:16:09;53.90;;;29.02;;
59512;SDS011;45330;51.634;5.562;2022-10-15T07:18:35;51.92;;;27.63;;
59512;SDS011;45330;51.634;5.562;2022-10-15T07:21:05;48.75;;;27.17;;
59512;SDS011;45330;51.634;5.562;2022-10-15T07:23:31;46.50;;;27.50;;
59512;SDS011;45330;51.634;5.562;2022-10-15T07:25:57;46.78;;;26.00;;
59512;SDS011;45330;51.634;5.562;2022-10-15T07:28:23;44.38;;;25.35;;
59512;SDS011;45330;51.634;5.562;2022-10-15T07:30:49;47.10;;;25.67;;
59512;SDS011;45330;51.634;5.562;2022-10-15T07:33:15;44.78;;;24.38;;
59512;SDS011;45330;51.634;5.562;2022-10-15T07:35:40;46.15;;;25.42;;
59512;SDS011;45330;51.634;5.562;2022-10-15T07:38:05;45.40;;;24.92;;
59512;SDS011;45330;51.634;5.562;2022-10-15T07:40:31;44.58;;;24.02;;
59512;SDS011;45330;51.634;5.562;2022-10-15T07:42:57;45.60;;;25.23;;
59512;SDS011;45330;51.634;5.562;2022-10-15T07:45:23;44.30;;;23.27;;
59512;SDS011;45330;51.634;5.562;2022-10-15T07:47:49;45.08;;;24.48;;
59512;SDS011;45330;51.634;5.562;2022-10-15T07:50:14;42.03;;;23.98;;
59512;SDS011;45330;51.634;5.562;2022-10-15T07:52:40;40.30;;;22.27;;
59512;SDS011;45330;51.634;5.562;2022-10-15T07:55:06;40.20;;;24.02;;
59512;SDS011;45330;51.634;5.562;2022-10-15T07:57:32;41.47;;;22.58;;
59512;SDS011;45330;51.634;5.562;2022-10-15T07:59:57;40.40;;;22.33;;
59512;SDS011;45330;51.634;5.562;2022-10-15T08:02:22;39.20;;;22.50;;
59512;SDS011;45330;51.634;5.562;2022-10-15T08:04:48;37.92;;;20.95;;
59512;SDS011;45330;51.634;5.562;2022-10-15T08:07:13;38.53;;;20.25;;
59512;SDS011;45330;51.634;5.562;2022-10-15T08:09:39;39.10;;;21.35;;
59512;SDS011;45330;51.634;5.562;2022-10-15T08:12:04;40.03;;;20.85;;
59512;SDS011;45330;51.634;5.562;2022-10-15T08:14:31;35.90;;;20.13;;
59512;SDS011;45330;51.634;5.562;2022-10-15T08:16:57;33.22;;;17.92;;
59512;SDS011;45330;51.634;5.562;2022-10-15T08:19:22;32.72;;;17.65;;
59512;SDS011;45330;51.634;5.562;2022-10-15T08:21:48;34.67;;;18.42;;
59512;SDS011;45330;51.634;5.562;2022-10-15T08:24:13;32.10;;;17.50;;
59512;SDS011;45330;51.634;5.562;2022-10-15T08:26:38;33.22;;;18.40;;
59512;SDS011;45330;51.634;5.562;2022-10-15T08:29:04;32.97;;;17.95;;
59512;SDS011;45330;51.634;5.562;2022-10-15T08:31:29;31.25;;;16.02;;
59512;SDS011;45330;51.634;5.562;2022-10-15T08:33:58;32.05;;;16.20;;
59512;SDS011;45330;51.634;5.562;2022-10-15T08:36:24;28.23;;;15.35;;
59512;SDS011;45330;51.634;5.562;2022-10-15T08:38:50;27.25;;;14.52;;
59512;SDS011;45330;51.634;5.562;2022-10-15T08:43:46;23.05;;;12.25;;
59512;SDS011;45330;51.634;5.562;2022-10-15T08:46:17;23.83;;;12.20;;
59512;SDS011;45330;51.634;5.562;2022-10-15T08:48:49;22.55;;;11.75;;
59512;SDS011;45330;51.634;5.562;2022-10-15T08:51:19;21.23;;;10.82;;
59512;SDS011;45330;51.634;5.562;2022-10-15T08:53:50;20.80;;;9.82;;
59512;SDS011;45330;51.634;5.562;2022-10-15T08:56:20;21.35;;;10.18;;
59512;SDS011;45330;51.634;5.562;2022-10-15T09:07:07;20.13;;;8.73;;
59512;SDS011;45330;51.634;5.562;2022-10-15T09:09:40;21.02;;;9.25;;
59512;SDS011;45330;51.634;5.562;2022-10-15T09:14:55;18.92;;;8.73;;
59512;SDS011;45330;51.634;5.562;2022-10-15T09:17:23;20.45;;;9.02;;
59512;SDS011;45330;51.634;5.562;2022-10-15T09:19:50;20.42;;;8.77;;
59512;SDS011;45330;51.634;5.562;2022-10-15T09:22:21;19.70;;;8.73;;
59512;SDS011;45330;51.634;5.562;2022-10-15T09:24:48;20.10;;;9.03;;
59512;SDS011;45330;51.634;5.562;2022-10-15T09:27:20;20.15;;;8.60;;
59512;SDS011;45330;51.634;5.562;2022-10-15T09:32:50;20.83;;;9.23;;
59512;SDS011;45330;51.634;5.562;2022-10-15T09:35:23;20.38;;;8.80;;
59512;SDS011;45330;51.634;5.562;2022-10-15T09:43:40;21.70;;;9.18;;
59512;SDS011;45330;51.634;5.562;2022-10-15T09:46:07;20.55;;;8.63;;
59512;SDS011;45330;51.634;5.562;2022-10-15T09:48:35;21.13;;;9.27;;
59512;SDS011;45330;51.634;5.562;2022-10-15T09:59:35;20.17;;;8.93;;
59512;SDS011;45330;51.634;5.562;2022-10-15T10:02:04;20.88;;;9.15;;
59512;SDS011;45330;51.634;5.562;2022-10-15T10:04:43;20.77;;;9.63;;
59512;SDS011;45330;51.634;5.562;2022-10-15T10:07:22;21.13;;;9.38;;
59512;SDS011;45330;51.634;5.562;2022-10-15T10:10:19;22.48;;;9.00;;
59512;SDS011;45330;51.634;5.562;2022-10-15T10:12:45;21.45;;;8.98;;
59512;SDS011;45330;51.634;5.562;2022-10-15T10:17:51;21.10;;;8.93;;
59512;SDS011;45330;51.634;5.562;2022-10-15T10:20:21;20.60;;;8.38;;
59512;SDS011;45330;51.634;5.562;2022-10-15T10:22:49;22.80;;;9.73;;
59512;SDS011;45330;51.634;5.562;2022-10-15T10:27:50;20.52;;;7.68;;
59512;SDS011;45330;51.634;5.562;2022-10-15T10:30:16;19.95;;;8.30;;
59512;SDS011;45330;51.634;5.562;2022-10-15T10:32:42;21.02;;;8.55;;
59512;SDS011;45330;51.634;5.562;2022-10-15T10:35:18;19.17;;;8.13;;
59512;SDS011;45330;51.634;5.562;2022-10-15T10:37:46;19.65;;;8.55;;
59512;SDS011;45330;51.634;5.562;2022-10-15T10:40:28;20.15;;;8.00;;
59512;SDS011;45330;51.634;5.562;2022-10-15T10:43:56;18.20;;;6.95;;
59512;SDS011;45330;51.634;5.562;2022-10-15T10:48:19;16.05;;;6.00;;
59512;SDS011;45330;51.634;5.562;2022-10-15T10:50:46;16.10;;;6.35;;
59512;SDS011;45330;51.634;5.562;2022-10-15T10:53:19;17.23;;;5.70;;
59512;SDS011;45330;51.634;5.562;2022-10-15T10:55:47;15.82;;;5.72;;
59512;SDS011;45330;51.634;5.562;2022-10-15T10:58:18;15.00;;;4.97;;
59512;SDS011;45330;51.634;5.562;2022-10-15T11:00:46;14.93;;;5.20;;
59512;SDS011;45330;51.634;5.562;2022-10-15T11:03:22;11.95;;;4.90;;
59512;SDS011;45330;51.634;5.562;2022-10-15T11:08:53;10.55;;;4.80;;
59512;SDS011;45330;51.634;5.562;2022-10-15T11:11:57;9.68;;;4.30;;
59512;SDS011;45330;51.634;5.562;2022-10-15T11:14:31;10.43;;;4.35;;
59512;SDS011;45330;51.634;5.562;2022-10-15T11:28:50;10.18;;;4.13;;
59512;SDS011;45330;51.634;5.562;2022-10-15T11:31:33;7.82;;;3.90;;
59512;SDS011;45330;51.634;5.562;2022-10-15T11:43:00;7.63;;;4.13;;
59512;SDS011;45330;51.634;5.562;2022-10-15T11:56:17;8.02;;;3.83;;
59512;SDS011;45330;51.634;5.562;2022-10-15T11:58:51;7.85;;;4.00;;
59512;SDS011;45330;51.634;5.562;2022-10-15T12:03:55;6.75;;;3.88;;
59512;SDS011;45330;51.634;5.562;2022-10-15T12:06:25;8.20;;;3.83;;
59512;SDS011;45330;51.634;5.562;2022-10-15T12:08:54;6.43;;;3.60;;
59512;SDS011;45330;51.634;5.562;2022-10-15T12:21:41;6.18;;;3.40;;
59512;SDS011;45330;51.634;5.562;2022-10-15T12:35:23;4.50;;;3.10;;
59512;SDS011;45330;51.634;5.562;2022-10-15T12:38:07;6.10;;;3.50;;
59512;SDS011;45330;51.634;5.562;2022-10-15T12:40:55;6.22;;;3.20;;
59512;SDS011;45330;51.634;5.562;2022-10-15T12:43:30;6.38;;;2.90;;
59512;SDS011;45330;51.634;5.562;2022-10-15T12:45:59;6.78;;;3.58;;
59512;SDS011;45330;51.634;5.562;2022-10-15T12:48:45;11.90;;;4.95;;
59512;SDS011;45330;51.634;5.562;2022-10-15T12:53:46;5.90;;;2.78;;
59512;SDS011;45330;51.634;5.562;2022-10-15T13:03:40;4.75;;;3.10;;
59512;SDS011;45330;51.634;5.562;2022-10-15T13:11:26;6.75;;;3.40;;
59512;SDS011;45330;51.634;5.562;2022-10-15T13:16:55;5.82;;;3.65;;
59512;SDS011;45330;51.634;5.562;2022-10-15T13:19:29;7.90;;;4.30;;
59512;SDS011;45330;51.634;5.562;2022-10-15T13:22:19;5.90;;;3.75;;
59512;SDS011;45330;51.634;5.562;2022-10-15T13:24:47;6.20;;;4.10;;
59512;SDS011;45330;51.634;5.562;2022-10-15T13:27:20;8.15;;;4.63;;
59512;SDS011;45330;51.634;5.562;2022-10-15T13:32:21;6.30;;;4.10;;
59512;SDS011;45330;51.634;5.562;2022-10-15T13:34:48;8.35;;;4.28;;
59512;SDS011;45330;51.634;5.562;2022-10-15T13:37:16;8.13;;;4.55;;
59512;SDS011;45330;51.634;5.562;2022-10-15T13:39:43;7.43;;;4.68;;
59512;SDS011;45330;51.634;5.562;2022-10-15T13:44:37;11.02;;;4.95;;
59512;SDS011;45330;51.634;5.562;2022-10-15T13:47:14;9.85;;;5.35;;
59512;SDS011;45330;51.634;5.562;2022-10-15T13:49:47;9.63;;;5.10;;
59512;SDS011;45330;51.634;5.562;2022-10-15T13:52:12;7.88;;;4.97;;
59512;SDS011;45330;51.634;5.562;2022-10-15T13:54:38;8.40;;;4.07;;
59512;SDS011;45330;51.634;5.562;2022-10-15T13:57:03;4.90;;;2.42;;
59512;SDS011;45330;51.634;5.562;2022-10-15T13:59:29;6.10;;;2.75;;
59512;SDS011;45330;51.634;5.562;2022-10-15T14:01:56;2.47;;;1.95;;
59512;SDS011;45330;51.634;5.562;2022-10-15T14:04:25;2.78;;;1.92;;
59512;SDS011;45330;51.634;5.562;2022-10-15T14:06:53;2.80;;;1.80;;
59512;SDS011;45330;51.634;5.562;2022-10-15T14:09:36;5.32;;;1.77;;
59512;SDS011;45330;51.634;5.562;2022-10-15T14:12:04;3.53;;;1.88;;
59512;SDS011;45330;51.634;5.562;2022-10-15T14:14:35;4.03;;;1.70;;
59512;SDS011;45330;51.634;5.562;2022-10-15T14:17:11;1.85;;;1.50;;
59512;SDS011;45330;51.634;5.562;2022-10-15T14:19:49;3.17;;;1.60;;
59512;SDS011;45330;51.634;5.562;2022-10-15T14:22:27;1.95;;;1.63;;
59512;SDS011;45330;51.634;5.562;2022-10-15T14:24:53;3.08;;;1.40;;
59512;SDS011;45330;51.634;5.562;2022-10-15T14:27:26;1.88;;;1.20;;
59512;SDS011;45330;51.634;5.562;2022-10-15T14:29:57;3.72;;;1.23;;
59512;SDS011;45330;51.634;5.562;2022-10-15T14:32:28;1.42;;;1.10;;
59512;SDS011;45330;51.634;5.562;2022-10-15T14:34:55;4.00;;;1.23;;
59512;SDS011;45330;51.634;5.562;2022-10-15T14:37:26;1.77;;;1.30;;
59512;SDS011;45330;51.634;5.562;2022-10-15T14:40:28;3.10;;;1.40;;
59512;SDS011;45330;51.634;5.562;2022-10-15T14:43:06;1.95;;;1.45;;
59512;SDS011;45330;51.634;5.562;2022-10-15T14:48:21;3.35;;;1.35;;
59512;SDS011;45330;51.634;5.562;2022-10-15T14:50:48;1.13;;;0.93;;
59512;SDS011;45330;51.634;5.562;2022-10-15T14:53:16;3.58;;;1.00;;
59512;SDS011;45330;51.634;5.562;2022-10-15T14:55:47;4.13;;;1.52;;
59512;SDS011;45330;51.634;5.562;2022-10-15T14:58:17;3.30;;;1.40;;
59512;SDS011;45330;51.634;5.562;2022-10-15T15:00:45;3.15;;;1.30;;
59512;SDS011;45330;51.634;5.562;2022-10-15T15:03:14;2.92;;;1.63;;
59512;SDS011;45330;51.634;5.562;2022-10-15T15:05:47;2.95;;;1.77;;
59512;SDS011;45330;51.634;5.562;2022-10-15T15:08:14;2.67;;;1.50;;
59512;SDS011;45330;51.634;5.562;2022-10-15T15:10:40;1.40;;;1.05;;
59512;SDS011;45330;51.634;5.562;2022-10-15T15:13:09;4.28;;;1.25;;
59512;SDS011;45330;51.634;5.562;2022-10-15T15:15:36;1.10;;;1.02;;
59512;SDS011;45330;51.634;5.562;2022-10-15T15:18:07;1.77;;;1.10;;
59512;SDS011;45330;51.634;5.562;2022-10-15T15:20:34;2.70;;;1.27;;
59512;SDS011;45330;51.634;5.562;2022-10-15T15:22:59;2.90;;;1.35;;
59512;SDS011;45330;51.634;5.562;2022-10-15T15:25:29;2.20;;;1.20;;
59512;SDS011;45330;51.634;5.562;2022-10-15T15:27:57;2.95;;;1.60;;
59512;SDS011;45330;51.634;5.562;2022-10-15T15:30:24;1.23;;;1.13;;
59512;SDS011;45330;51.634;5.562;2022-10-15T15:32:51;5.40;;;1.80;;
59512;SDS011;45330;51.634;5.562;2022-10-15T15:37:49;4.97;;;1.40;;
59512;SDS011;45330;51.634;5.562;2022-10-15T15:40:15;3.38;;;1.38;;
59512;SDS011;45330;51.634;5.562;2022-10-15T15:42:41;4.38;;;1.60;;
59512;SDS011;45330;51.634;5.562;2022-10-15T15:45:12;4.45;;;1.75;;
59512;SDS011;45330;51.634;5.562;2022-10-15T15:47:41;2.08;;;1.40;;
59512;SDS011;45330;51.634;5.562;2022-10-15T15:50:07;3.92;;;1.25;;
59512;SDS011;45330;51.634;5.562;2022-10-15T15:52:32;2.67;;;1.60;;
59512;SDS011;45330;51.634;5.562;2022-10-15T15:54:57;4.13;;;1.95;;
59512;SDS011;45330;51.634;5.562;2022-10-15T15:57:23;3.75;;;1.60;;
59512;SDS011;45330;51.634;5.562;2022-10-15T15:59:48;3.50;;;1.30;;
59512;SDS011;45330;51.634;5.562;2022-10-15T16:02:14;4.68;;;1.60;;
59512;SDS011;45330;51.634;5.562;2022-10-15T16:04:39;4.20;;;1.58;;
59512;SDS011;45330;51.634;5.562;2022-10-15T16:07:04;3.47;;;1.35;;
59512;SDS011;45330;51.634;5.562;2022-10-15T16:09:30;3.90;;;1.65;;
59512;SDS011;45330;51.634;5.562;2022-10-15T16:11:55;4.82;;;1.50;;
59512;SDS011;45330;51.634;5.562;2022-10-15T16:14:21;5.82;;;1.75;;
59512;SDS011;45330;51.634;5.562;2022-10-15T16:16:46;5.05;;;1.50;;
59512;SDS011;45330;51.634;5.562;2022-10-15T16:19:12;7.38;;;1.60;;
59512;SDS011;45330;51.634;5.562;2022-10-15T16:21:38;5.25;;;1.73;;
59512;SDS011;45330;51.634;5.562;2022-10-15T16:24:03;4.80;;;1.60;;
59512;SDS011;45330;51.634;5.562;2022-10-15T16:26:29;3.40;;;1.60;;
59512;SDS011;45330;51.634;5.562;2022-10-15T16:28:54;5.13;;;1.63;;
59512;SDS011;45330;51.634;5.562;2022-10-15T16:31:24;2.47;;;1.30;;
59512;SDS011;45330;51.634;5.562;2022-10-15T16:33:52;3.22;;;1.65;;
59512;SDS011;45330;51.634;5.562;2022-10-15T16:36:18;2.40;;;1.55;;
59512;SDS011;45330;51.634;5.562;2022-10-15T16:38:44;6.78;;;2.10;;
59512;SDS011;45330;51.634;5.562;2022-10-15T16:41:11;5.57;;;2.13;;
59512;SDS011;45330;51.634;5.562;2022-10-15T16:43:37;7.57;;;2.28;;
59512;SDS011;45330;51.634;5.562;2022-10-15T16:46:03;6.72;;;2.40;;
59512;SDS011;45330;51.634;5.562;2022-10-15T16:48:30;5.20;;;2.10;;
59512;SDS011;45330;51.634;5.562;2022-10-15T16:53:28;5.85;;;2.40;;
59512;SDS011;45330;51.634;5.562;2022-10-15T16:55:58;7.75;;;2.80;;
59512;SDS011;45330;51.634;5.562;2022-10-15T16:58:25;6.20;;;2.72;;
59512;SDS011;45330;51.634;5.562;2022-10-15T17:00:50;10.38;;;3.00;;
59512;SDS011;45330;51.634;5.562;2022-10-15T17:03:16;7.43;;;2.60;;
59512;SDS011;45330;51.634;5.562;2022-10-15T17:05:41;12.38;;;3.38;;
59512;SDS011;45330;51.634;5.562;2022-10-15T17:08:06;8.00;;;2.80;;
59512;SDS011;45330;51.634;5.562;2022-10-15T17:10:32;8.30;;;3.00;;